sensor_id;sensor_type;location;lat;lon;timestamp;pressure;altitude;pressure_sealevel;temperature;humidity
34738;BME280;39910;47.154;27.614;2022-08-11T00:00:18;101103.53;;;14.96;100.00
34738;BME280;39910;47.154;27.614;2022-08-11T00:02:47;101108.88;;;14.96;100.00
34738;BME280;39910;47.154;27.614;2022-08-11T00:05:17;101099.59;;;14.92;100.00
34738;BME280;39910;47.154;27.614;2022-08-11T00:07:49;101092.59;;;14.91;100.00
34738;BME280;39910;47.154;27.614;2022-08-11T00:10:18;101095.81;;;14.86;100.00
34738;BME280;39910;47.154;27.614;2022-08-11T00:12:59;101087.34;;;14.83;100.00
34738;BME280;39910;47.154;27.614;2022-08-11T00:15:28;101081.25;;;14.89;100.00
34738;BME280;39910;47.154;27.614;2022-08-11T00:18:02;101081.16;;;14.82;100.00
34738;BME280;39910;47.154;27.614;2022-08-11T00:20:31;101082.59;;;14.78;100.00
34738;BME280;39910;47.154;27.614;2022-08-11T00:23:08;101092.06;;;14.81;100.00
34738;BME280;39910;47.154;27.614;2022-08-11T00:25:45;101097.19;;;14.82;100.00
34738;BME280;39910;47.154;27.614;2022-08-11T00:30:51;101097.41;;;14.81;100.00
34738;BME280;39910;47.154;27.614;2022-08-11T00:33:17;101093.00;;;14.73;100.00
34738;BME280;39910;47.154;27.614;2022-08-11T00:35:45;101082.03;;;14.68;100.00
34738;BME280;39910;47.154;27.614;2022-08-11T00:38:14;101093.38;;;14.70;100.00
34738;BME280;39910;47.154;27.614;2022-08-11T00:41:17;101104.63;;;14.65;100.00
34738;BME280;39910;47.154;27.614;2022-08-11T00:55:57;101097.72;;;14.56;100.00
34738;BME280;39910;47.154;27.614;2022-08-11T01:20:55;101096.22;;;14.39;100.00
34738;BME280;39910;47.154;27.614;2022-08-11T01:31:44;101095.50;;;14.45;100.00
34738;BME280;39910;47.154;27.614;2022-08-11T01:59:09;101081.91;;;14.40;100.00
34738;BME280;39910;47.154;27.614;2022-08-11T02:20:25;101086.97;;;14.50;100.00
34738;BME280;39910;47.154;27.614;2022-08-11T02:23:32;101093.97;;;14.51;100.00
34738;BME280;39910;47.154;27.614;2022-08-11T02:26:26;101097.84;;;14.48;100.00
34738;BME280;39910;47.154;27.614;2022-08-11T02:29:24;101094.44;;;14.54;100.00
34738;BME280;39910;47.154;27.614;2022-08-11T02:32:21;101096.25;;;14.54;100.00
34738;BME280;39910;47.154;27.614;2022-08-11T02:35:26;101095.25;;;14.55;100.00
34738;BME280;39910;47.154;27.614;2022-08-11T02:41:12;101099.50;;;14.49;100.00
34738;BME280;39910;47.154;27.614;2022-08-11T02:44:23;101094.50;;;14.46;100.00
34738;BME280;39910;47.154;27.614;2022-08-11T02:50:02;101108.78;;;14.53;100.00
34738;BME280;39910;47.154;27.614;2022-08-11T02:59:52;101098.66;;;14.63;100.00
34738;BME280;39910;47.154;27.614;2022-08-11T03:19:35;101105.94;;;14.55;100.00
34738;BME280;39910;47.154;27.614;2022-08-11T03:22:29;101102.88;;;14.58;100.00
34738;BME280;39910;47.154;27.614;2022-08-11T03:25:01;101102.69;;;14.59;100.00
34738;BME280;39910;47.154;27.614;2022-08-11T03:33:42;101101.47;;;14.98;100.00
34738;BME280;39910;47.154;27.614;2022-08-11T03:53:34;101069.31;;;20.51;100.00
34738;BME280;39910;47.154;27.614;2022-08-11T03:56:36;101074.91;;;22.10;100.00
34738;BME280;39910;47.154;27.614;2022-08-11T04:01:35;101085.94;;;23.01;100.00
34738;BME280;39910;47.154;27.614;2022-08-11T04:12:58;101072.94;;;25.23;100.00
34738;BME280;39910;47.154;27.614;2022-08-11T04:49:27;101059.94;;;28.99;95.31
34738;BME280;39910;47.154;27.614;2022-08-11T04:52:28;101054.53;;;27.23;100.00
34738;BME280;39910;47.154;27.614;2022-08-11T05:05:02;101031.50;;;28.06;100.00
34738;BME280;39910;47.154;27.614;2022-08-11T05:13:46;101046.78;;;30.78;81.25
34738;BME280;39910;47.154;27.614;2022-08-11T05:19:25;101044.94;;;31.25;76.73
34738;BME280;39910;47.154;27.614;2022-08-11T05:22:11;101050.53;;;31.80;75.02
34738;BME280;39910;47.154;27.614;2022-08-11T05:25:18;101039.25;;;31.35;71.94
34738;BME280;39910;47.154;27.614;2022-08-11T05:28:10;101044.81;;;31.77;71.92
34738;BME280;39910;47.154;27.614;2022-08-11T05:31:01;101044.75;;;32.59;68.10
34738;BME280;39910;47.154;27.614;2022-08-11T05:33:49;101034.34;;;32.34;67.63
34738;BME280;39910;47.154;27.614;2022-08-11T05:39:19;101039.19;;;31.41;68.34
34738;BME280;39910;47.154;27.614;2022-08-11T05:42:06;101038.81;;;31.61;68.12
34738;BME280;39910;47.154;27.614;2022-08-11T05:44:54;101034.22;;;30.91;70.51
34738;BME280;39910;47.154;27.614;2022-08-11T05:47:40;101045.59;;;31.63;67.91
34738;BME280;39910;47.154;27.614;2022-08-11T05:50:25;101033.41;;;31.56;69.82
34738;BME280;39910;47.154;27.614;2022-08-11T05:53:11;101039.88;;;31.14;69.09
34738;BME280;39910;47.154;27.614;2022-08-11T05:55:57;101044.66;;;31.41;68.96
34738;BME280;39910;47.154;27.614;2022-08-11T05:58:43;101038.25;;;31.13;72.95
34738;BME280;39910;47.154;27.614;2022-08-11T06:01:19;101035.66;;;31.68;68.54
34738;BME280;39910;47.154;27.614;2022-08-11T06:03:49;101029.81;;;30.58;72.29
34738;BME280;39910;47.154;27.614;2022-08-11T06:06:36;101032.91;;;32.09;67.51
34738;BME280;39910;47.154;27.614;2022-08-11T06:09:06;101030.28;;;31.76;66.36
34738;BME280;39910;47.154;27.614;2022-08-11T06:11:37;101025.84;;;31.80;68.23
34738;BME280;39910;47.154;27.614;2022-08-11T06:14:06;101021.84;;;32.64;64.22
34738;BME280;39910;47.154;27.614;2022-08-11T06:16:32;101015.31;;;32.24;65.95
34738;BME280;39910;47.154;27.614;2022-08-11T06:18:58;101010.16;;;31.95;67.82
34738;BME280;39910;47.154;27.614;2022-08-11T06:21:24;101008.88;;;33.01;64.14
34738;BME280;39910;47.154;27.614;2022-08-11T06:23:51;101007.22;;;32.18;65.15
34738;BME280;39910;47.154;27.614;2022-08-11T06:26:17;101006.31;;;33.04;61.89
34738;BME280;39910;47.154;27.614;2022-08-11T06:28:46;101013.59;;;33.00;61.92
34738;BME280;39910;47.154;27.614;2022-08-11T06:31:21;101007.25;;;33.53;59.67
34738;BME280;39910;47.154;27.614;2022-08-11T06:34:08;101000.06;;;32.67;60.61
34738;BME280;39910;47.154;27.614;2022-08-11T06:36:56;101006.34;;;33.66;58.03
34738;BME280;39910;47.154;27.614;2022-08-11T06:39:40;100996.78;;;33.02;58.72
34738;BME280;39910;47.154;27.614;2022-08-11T06:42:23;101004.81;;;34.00;57.74
34738;BME280;39910;47.154;27.614;2022-08-11T06:45:10;101001.00;;;34.79;54.91
34738;BME280;39910;47.154;27.614;2022-08-11T06:47:46;101001.34;;;34.43;53.89
34738;BME280;39910;47.154;27.614;2022-08-11T06:50:20;100995.28;;;34.15;55.33
34738;BME280;39910;47.154;27.614;2022-08-11T06:53:06;100986.22;;;34.14;54.57
34738;BME280;39910;47.154;27.614;2022-08-11T06:55:35;101000.38;;;33.73;55.88
34738;BME280;39910;47.154;27.614;2022-08-11T06:58:26;100990.31;;;34.43;53.58
34738;BME280;39910;47.154;27.614;2022-08-11T07:01:14;101000.53;;;34.77;52.35
34738;BME280;39910;47.154;27.614;2022-08-11T07:03:47;100987.41;;;34.30;53.58
34738;BME280;39910;47.154;27.614;2022-08-11T07:06:45;100992.91;;;34.30;52.95
34738;BME280;39910;47.154;27.614;2022-08-11T07:12:42;100983.31;;;34.36;51.15
34738;BME280;39910;47.154;27.614;2022-08-11T07:15:32;100987.56;;;34.69;51.71
34738;BME280;39910;47.154;27.614;2022-08-11T07:18:13;100985.88;;;34.07;52.57
34738;BME280;39910;47.154;27.614;2022-08-11T07:21:21;100985.97;;;33.36;54.49
34738;BME280;39910;47.154;27.614;2022-08-11T07:24:16;100985.13;;;34.32;51.72
34738;BME280;39910;47.154;27.614;2022-08-11T07:27:05;100993.25;;;34.63;52.60
34738;BME280;39910;47.154;27.614;2022-08-11T07:29:51;101003.16;;;35.37;49.93
34738;BME280;39910;47.154;27.614;2022-08-11T07:32:27;100987.75;;;33.80;52.06
34738;BME280;39910;47.154;27.614;2022-08-11T07:35:03;100985.72;;;34.03;52.26
34738;BME280;39910;47.154;27.614;2022-08-11T07:37:32;100987.22;;;34.27;52.01
34738;BME280;39910;47.154;27.614;2022-08-11T07:39:59;100988.97;;;33.97;52.03
34738;BME280;39910;47.154;27.614;2022-08-11T07:42:29;100994.13;;;33.90;52.51
34738;BME280;39910;47.154;27.614;2022-08-11T07:44:56;100981.09;;;33.73;52.45
34738;BME280;39910;47.154;27.614;2022-08-11T07:47:42;100995.41;;;33.92;52.67
34738;BME280;39910;47.154;27.614;2022-08-11T07:50:28;100989.31;;;32.57;55.26
34738;BME280;39910;47.154;27.614;2022-08-11T07:53:13;100989.94;;;34.01;52.55
34738;BME280;39910;47.154;27.614;2022-08-11T07:55:41;100976.13;;;31.41;58.80
34738;BME280;39910;47.154;27.614;2022-08-11T07:58:08;100987.72;;;31.79;57.82
34738;BME280;39910;47.154;27.614;2022-08-11T08:00:55;100989.72;;;32.14;58.06
34738;BME280;39910;47.154;27.614;2022-08-11T08:03:41;100979.91;;;31.86;59.57
34738;BME280;39910;47.154;27.614;2022-08-11T08:06:27;100984.56;;;31.44;60.86
34738;BME280;39910;47.154;27.614;2022-08-11T08:09:12;100978.69;;;29.91;66.53
34738;BME280;39910;47.154;27.614;2022-08-11T08:12:00;100975.50;;;30.03;67.97
34738;BME280;39910;47.154;27.614;2022-08-11T08:14:44;100979.69;;;32.10;62.75
34738;BME280;39910;47.154;27.614;2022-08-11T08:17:29;100982.94;;;30.59;67.69
34738;BME280;39910;47.154;27.614;2022-08-11T08:20:17;100971.38;;;30.06;70.08
34738;BME280;39910;47.154;27.614;2022-08-11T08:22:47;100970.84;;;30.27;73.76
34738;BME280;39910;47.154;27.614;2022-08-11T08:25:15;100968.31;;;29.40;74.19
34738;BME280;39910;47.154;27.614;2022-08-11T08:27:42;100961.94;;;30.54;72.60
34738;BME280;39910;47.154;27.614;2022-08-11T08:30:11;100964.78;;;30.12;72.55
34738;BME280;39910;47.154;27.614;2022-08-11T08:32:56;100963.22;;;29.29;74.99
34738;BME280;39910;47.154;27.614;2022-08-11T08:35:23;100960.47;;;28.26;82.19
34738;BME280;39910;47.154;27.614;2022-08-11T08:37:50;100963.66;;;28.78;84.04
34738;BME280;39910;47.154;27.614;2022-08-11T08:40:16;100968.78;;;29.48;77.00
34738;BME280;39910;47.154;27.614;2022-08-11T08:42:52;100959.72;;;28.11;85.58
34738;BME280;39910;47.154;27.614;2022-08-11T08:45:19;100960.13;;;28.77;84.91
34738;BME280;39910;47.154;27.614;2022-08-11T08:48:07;100962.69;;;29.32;81.82
34738;BME280;39910;47.154;27.614;2022-08-11T08:50:53;100950.44;;;27.42;92.94
34738;BME280;39910;47.154;27.614;2022-08-11T08:53:41;100952.72;;;29.17;85.37
34738;BME280;39910;47.154;27.614;2022-08-11T08:56:10;100954.47;;;29.80;81.39
34738;BME280;39910;47.154;27.614;2022-08-11T08:58:40;100947.94;;;29.57;81.64
34738;BME280;39910;47.154;27.614;2022-08-11T09:01:09;100950.94;;;30.22;77.33
34738;BME280;39910;47.154;27.614;2022-08-11T09:03:36;100949.06;;;30.17;76.31
34738;BME280;39910;47.154;27.614;2022-08-11T09:06:02;100947.28;;;30.45;73.87
34738;BME280;39910;47.154;27.614;2022-08-11T09:08:30;100958.88;;;30.94;72.00
34738;BME280;39910;47.154;27.614;2022-08-11T09:10:57;100940.63;;;30.51;71.46
34738;BME280;39910;47.154;27.614;2022-08-11T09:13:45;100937.06;;;29.23;75.40
34738;BME280;39910;47.154;27.614;2022-08-11T09:16:12;100939.63;;;29.38;77.17
34738;BME280;39910;47.154;27.614;2022-08-11T09:18:40;100937.97;;;30.46;71.55
34738;BME280;39910;47.154;27.614;2022-08-11T09:21:10;100931.13;;;29.87;72.55
34738;BME280;39910;47.154;27.614;2022-08-11T09:23:36;100937.63;;;28.56;78.82
34738;BME280;39910;47.154;27.614;2022-08-11T09:26:21;100921.41;;;27.87;83.88
34738;BME280;39910;47.154;27.614;2022-08-11T09:29:05;100923.88;;;29.96;74.04
34738;BME280;39910;47.154;27.614;2022-08-11T09:31:32;100918.00;;;29.65;76.82
34738;BME280;39910;47.154;27.614;2022-08-11T09:33:59;100920.56;;;28.75;79.91
34738;BME280;39910;47.154;27.614;2022-08-11T09:36:26;100924.38;;;26.90;89.05
34738;BME280;39910;47.154;27.614;2022-08-11T09:39:12;100923.56;;;29.07;81.80
34738;BME280;39910;47.154;27.614;2022-08-11T09:41:59;100917.13;;;27.70;87.78
34738;BME280;39910;47.154;27.614;2022-08-11T09:44:25;100905.59;;;27.89;87.98
34738;BME280;39910;47.154;27.614;2022-08-11T09:47:10;100925.34;;;29.46;80.59
34738;BME280;39910;47.154;27.614;2022-08-11T09:49:43;100914.53;;;28.78;83.84
34738;BME280;39910;47.154;27.614;2022-08-11T09:52:10;100917.28;;;28.44;84.90
34738;BME280;39910;47.154;27.614;2022-08-11T09:54:42;100924.84;;;27.43;89.38
34738;BME280;39910;47.154;27.614;2022-08-11T09:57:08;100920.16;;;27.53;88.95
34738;BME280;39910;47.154;27.614;2022-08-11T09:59:53;100931.66;;;28.88;83.83
34738;BME280;39910;47.154;27.614;2022-08-11T10:02:25;100912.72;;;28.29;86.26
34738;BME280;39910;47.154;27.614;2022-08-11T10:04:55;100909.13;;;27.89;86.81
34738;BME280;39910;47.154;27.614;2022-08-11T10:07:46;100914.41;;;28.93;84.39
34738;BME280;39910;47.154;27.614;2022-08-11T10:10:16;100908.69;;;27.62;90.02
34738;BME280;39910;47.154;27.614;2022-08-11T10:12:50;100913.06;;;27.63;92.27
34738;BME280;39910;47.154;27.614;2022-08-11T10:15:18;100910.84;;;28.19;90.35
34738;BME280;39910;47.154;27.614;2022-08-11T10:18:10;100910.44;;;27.17;91.76
34738;BME280;39910;47.154;27.614;2022-08-11T10:20:59;100905.41;;;27.65;94.08
34738;BME280;39910;47.154;27.614;2022-08-11T10:23:30;100914.66;;;28.23;90.48
34738;BME280;39910;47.154;27.614;2022-08-11T10:26:17;100913.22;;;27.12;92.79
34738;BME280;39910;47.154;27.614;2022-08-11T10:29:02;100907.38;;;27.44;94.13
34738;BME280;39910;47.154;27.614;2022-08-11T10:31:49;100915.94;;;27.07;96.52
34738;BME280;39910;47.154;27.614;2022-08-11T10:34:34;100913.72;;;26.98;96.71
34738;BME280;39910;47.154;27.614;2022-08-11T10:37:01;100912.53;;;27.50;92.71
34738;BME280;39910;47.154;27.614;2022-08-11T10:39:27;100913.75;;;26.63;95.37
34738;BME280;39910;47.154;27.614;2022-08-11T10:41:54;100910.72;;;26.95;95.82
34738;BME280;39910;47.154;27.614;2022-08-11T10:44:44;100908.00;;;26.95;94.58
34738;BME280;39910;47.154;27.614;2022-08-11T10:47:12;100907.44;;;27.23;95.10
34738;BME280;39910;47.154;27.614;2022-08-11T10:49:57;100909.88;;;27.40;93.89
34738;BME280;39910;47.154;27.614;2022-08-11T10:52:43;100896.38;;;27.79;92.02
34738;BME280;39910;47.154;27.614;2022-08-11T10:55:29;100896.09;;;28.30;89.32
34738;BME280;39910;47.154;27.614;2022-08-11T10:58:14;100892.44;;;28.01;91.13
34738;BME280;39910;47.154;27.614;2022-08-11T11:00:59;100882.88;;;27.39;91.55
34738;BME280;39910;47.154;27.614;2022-08-11T11:03:27;100888.91;;;27.31;93.46
34738;BME280;39910;47.154;27.614;2022-08-11T11:06:03;100892.47;;;26.24;97.65
34738;BME280;39910;47.154;27.614;2022-08-11T11:08:32;100886.81;;;26.77;95.78
34738;BME280;39910;47.154;27.614;2022-08-11T11:11:24;100888.13;;;27.25;92.07
34738;BME280;39910;47.154;27.614;2022-08-11T11:14:16;100879.38;;;27.33;91.12
34738;BME280;39910;47.154;27.614;2022-08-11T11:17:04;100886.34;;;27.70;90.19
34738;BME280;39910;47.154;27.614;2022-08-11T11:19:52;100881.63;;;27.86;88.39
34738;BME280;39910;47.154;27.614;2022-08-11T11:22:20;100880.84;;;28.19;87.33
34738;BME280;39910;47.154;27.614;2022-08-11T11:27:53;100868.97;;;28.44;85.05
34738;BME280;39910;47.154;27.614;2022-08-11T11:30:22;100867.22;;;28.58;84.72
34738;BME280;39910;47.154;27.614;2022-08-11T11:33:04;100872.91;;;26.73;88.27
34738;BME280;39910;47.154;27.614;2022-08-11T11:38:28;100868.38;;;28.08;83.27
34738;BME280;39910;47.154;27.614;2022-08-11T11:40:54;100858.03;;;27.56;85.75
34738;BME280;39910;47.154;27.614;2022-08-11T11:43:38;100870.41;;;27.87;86.27
34738;BME280;39910;47.154;27.614;2022-08-11T11:46:05;100877.94;;;28.05;82.35
34738;BME280;39910;47.154;27.614;2022-08-11T11:48:31;100864.97;;;28.31;80.63
34738;BME280;39910;47.154;27.614;2022-08-11T11:50:57;100866.41;;;28.87;78.73
34738;BME280;39910;47.154;27.614;2022-08-11T11:53:24;100868.28;;;28.92;77.81
34738;BME280;39910;47.154;27.614;2022-08-11T11:55:50;100853.44;;;28.40;79.07
34738;BME280;39910;47.154;27.614;2022-08-11T11:58:17;100850.53;;;27.81;80.89
34738;BME280;39910;47.154;27.614;2022-08-11T12:01:01;100849.19;;;27.19;80.71
34738;BME280;39910;47.154;27.614;2022-08-11T12:03:46;100853.06;;;26.37;85.56
34738;BME280;39910;47.154;27.614;2022-08-11T12:06:14;100849.22;;;26.84;81.74
34738;BME280;39910;47.154;27.614;2022-08-11T12:08:41;100850.28;;;27.18;80.75
34738;BME280;39910;47.154;27.614;2022-08-11T12:11:10;100850.69;;;27.51;78.75
34738;BME280;39910;47.154;27.614;2022-08-11T12:13:56;100851.84;;;27.35;78.63
34738;BME280;39910;47.154;27.614;2022-08-11T12:16:23;100851.56;;;27.91;78.51
34738;BME280;39910;47.154;27.614;2022-08-11T12:18:52;100852.63;;;28.68;75.62
34738;BME280;39910;47.154;27.614;2022-08-11T12:21:18;100862.63;;;28.78;75.13
34738;BME280;39910;47.154;27.614;2022-08-11T12:23:48;100849.41;;;27.88;75.65
34738;BME280;39910;47.154;27.614;2022-08-11T12:26:32;100842.34;;;27.87;72.99
34738;BME280;39910;47.154;27.614;2022-08-11T12:29:17;100846.69;;;28.61;73.23
34738;BME280;39910;47.154;27.614;2022-08-11T12:31:47;100839.81;;;28.34;72.00
34738;BME280;39910;47.154;27.614;2022-08-11T12:34:14;100830.13;;;28.52;72.18
34738;BME280;39910;47.154;27.614;2022-08-11T12:36:49;100836.44;;;28.48;72.91
34738;BME280;39910;47.154;27.614;2022-08-11T12:39:19;100830.84;;;28.63;72.95
34738;BME280;39910;47.154;27.614;2022-08-11T12:42:10;100819.81;;;28.10;75.14
34738;BME280;39910;47.154;27.614;2022-08-11T12:44:57;100828.41;;;28.61;73.68
34738;BME280;39910;47.154;27.614;2022-08-11T12:47:50;100827.63;;;27.83;73.47
34738;BME280;39910;47.154;27.614;2022-08-11T12:50:35;100828.25;;;28.48;72.93
34738;BME280;39910;47.154;27.614;2022-08-11T12:53:29;100821.53;;;28.93;68.87
34738;BME280;39910;47.154;27.614;2022-08-11T12:56:04;100827.63;;;27.83;69.65
34738;BME280;39910;47.154;27.614;2022-08-11T12:58:50;100819.72;;;28.20;69.02
34738;BME280;39910;47.154;27.614;2022-08-11T13:01:18;100823.50;;;28.87;66.54
34738;BME280;39910;47.154;27.614;2022-08-11T13:04:03;100819.38;;;28.37;67.78
34738;BME280;39910;47.154;27.614;2022-08-11T13:06:49;100816.28;;;28.09;65.28
34738;BME280;39910;47.154;27.614;2022-08-11T13:09:16;100822.13;;;28.27;65.70
34738;BME280;39910;47.154;27.614;2022-08-11T13:11:44;100815.53;;;27.99;66.42
34738;BME280;39910;47.154;27.614;2022-08-11T13:14:28;100827.03;;;27.91;67.26
34738;BME280;39910;47.154;27.614;2022-08-11T13:16:57;100820.94;;;27.60;67.36
34738;BME280;39910;47.154;27.614;2022-08-11T13:19:42;100827.28;;;27.94;68.86
34738;BME280;39910;47.154;27.614;2022-08-11T13:22:10;100819.63;;;27.96;67.93
34738;BME280;39910;47.154;27.614;2022-08-11T13:24:36;100809.97;;;28.14;67.59
34738;BME280;39910;47.154;27.614;2022-08-11T13:27:03;100805.47;;;27.94;66.79
34738;BME280;39910;47.154;27.614;2022-08-11T13:29:29;100816.69;;;27.93;67.84
34738;BME280;39910;47.154;27.614;2022-08-11T13:31:57;100804.38;;;28.29;68.08
34738;BME280;39910;47.154;27.614;2022-08-11T13:34:25;100800.16;;;28.13;68.44
34738;BME280;39910;47.154;27.614;2022-08-11T13:36:56;100798.81;;;28.11;68.36
34738;BME280;39910;47.154;27.614;2022-08-11T13:39:25;100794.13;;;28.16;68.45
34738;BME280;39910;47.154;27.614;2022-08-11T13:41:56;100797.44;;;27.69;70.08
34738;BME280;39910;47.154;27.614;2022-08-11T13:44:25;100792.00;;;28.08;69.98
34738;BME280;39910;47.154;27.614;2022-08-11T13:46:55;100794.69;;;27.74;70.61
34738;BME280;39910;47.154;27.614;2022-08-11T13:49:22;100783.38;;;27.51;70.31
34738;BME280;39910;47.154;27.614;2022-08-11T13:51:48;100788.47;;;27.68;68.60
34738;BME280;39910;47.154;27.614;2022-08-11T13:54:20;100786.56;;;27.69;67.18
34738;BME280;39910;47.154;27.614;2022-08-11T13:56:49;100776.28;;;27.56;66.72
34738;BME280;39910;47.154;27.614;2022-08-11T13:59:18;100785.72;;;27.19;69.52
34738;BME280;39910;47.154;27.614;2022-08-11T14:01:55;100789.59;;;27.57;69.20
34738;BME280;39910;47.154;27.614;2022-08-11T14:07:06;100791.25;;;27.53;68.97
34738;BME280;39910;47.154;27.614;2022-08-11T14:09:39;100788.72;;;27.77;68.28
34738;BME280;39910;47.154;27.614;2022-08-11T14:12:11;100780.31;;;28.02;68.26
34738;BME280;39910;47.154;27.614;2022-08-11T14:15:06;100772.38;;;27.72;69.32
34738;BME280;39910;47.154;27.614;2022-08-11T14:17:37;100770.63;;;27.42;69.27
34738;BME280;39910;47.154;27.614;2022-08-11T14:20:06;100775.81;;;27.38;71.42
34738;BME280;39910;47.154;27.614;2022-08-11T14:22:34;100762.56;;;27.16;70.91
34738;BME280;39910;47.154;27.614;2022-08-11T14:25:00;100779.38;;;27.34;70.23
34738;BME280;39910;47.154;27.614;2022-08-11T14:27:27;100770.97;;;27.74;69.14
34738;BME280;39910;47.154;27.614;2022-08-11T14:29:56;100774.00;;;27.73;67.96
34738;BME280;39910;47.154;27.614;2022-08-11T14:32:22;100769.28;;;26.49;71.60
34738;BME280;39910;47.154;27.614;2022-08-11T14:34:49;100766.44;;;27.05;72.13
34738;BME280;39910;47.154;27.614;2022-08-11T14:37:20;100774.69;;;27.39;70.83
34738;BME280;39910;47.154;27.614;2022-08-11T14:39:51;100771.41;;;27.47;70.18
34738;BME280;39910;47.154;27.614;2022-08-11T14:42:22;100760.88;;;27.75;70.05
34738;BME280;39910;47.154;27.614;2022-08-11T14:45:09;100764.78;;;27.59;69.79
34738;BME280;39910;47.154;27.614;2022-08-11T14:48:08;100762.88;;;27.69;69.83
34738;BME280;39910;47.154;27.614;2022-08-11T14:50:34;100763.13;;;27.68;69.13
34738;BME280;39910;47.154;27.614;2022-08-11T14:53:10;100758.31;;;26.80;69.75
34738;BME280;39910;47.154;27.614;2022-08-11T14:55:38;100764.47;;;27.16;68.45
34738;BME280;39910;47.154;27.614;2022-08-11T14:58:25;100760.03;;;27.35;68.48
34738;BME280;39910;47.154;27.614;2022-08-11T15:00:53;100758.13;;;27.36;67.79
34738;BME280;39910;47.154;27.614;2022-08-11T15:03:20;100763.34;;;27.27;67.76
34738;BME280;39910;47.154;27.614;2022-08-11T15:05:47;100759.69;;;27.47;67.38
34738;BME280;39910;47.154;27.614;2022-08-11T15:08:14;100768.41;;;27.49;66.91
34738;BME280;39910;47.154;27.614;2022-08-11T15:10:41;100754.81;;;27.44;66.92
34738;BME280;39910;47.154;27.614;2022-08-11T15:13:07;100758.09;;;27.41;66.58
34738;BME280;39910;47.154;27.614;2022-08-11T15:15:35;100746.50;;;27.20;68.02
34738;BME280;39910;47.154;27.614;2022-08-11T15:18:21;100749.34;;;27.44;66.94
34738;BME280;39910;47.154;27.614;2022-08-11T15:20:48;100743.91;;;27.39;65.80
34738;BME280;39910;47.154;27.614;2022-08-11T15:23:33;100740.13;;;26.65;67.17
34738;BME280;39910;47.154;27.614;2022-08-11T15:26:18;100737.56;;;26.94;67.51
34738;BME280;39910;47.154;27.614;2022-08-11T15:29:06;100734.59;;;27.50;66.88
34738;BME280;39910;47.154;27.614;2022-08-11T15:31:51;100733.03;;;27.39;66.79
34738;BME280;39910;47.154;27.614;2022-08-11T15:34:35;100742.50;;;27.46;67.38
34738;BME280;39910;47.154;27.614;2022-08-11T15:37:21;100734.91;;;27.48;67.32
34738;BME280;39910;47.154;27.614;2022-08-11T15:43:03;100732.00;;;27.30;65.37
34738;BME280;39910;47.154;27.614;2022-08-11T15:45:51;100732.88;;;27.20;64.96
34738;BME280;39910;47.154;27.614;2022-08-11T15:48:26;100736.47;;;26.95;64.06
34738;BME280;39910;47.154;27.614;2022-08-11T15:50:56;100728.25;;;27.15;63.45
34738;BME280;39910;47.154;27.614;2022-08-11T15:53:38;100724.25;;;26.97;65.33
34738;BME280;39910;47.154;27.614;2022-08-11T15:56:05;100722.06;;;26.94;66.47
34738;BME280;39910;47.154;27.614;2022-08-11T15:58:37;100724.03;;;26.79;67.39
34738;BME280;39910;47.154;27.614;2022-08-11T16:01:23;100720.94;;;27.11;67.23
34738;BME280;39910;47.154;27.614;2022-08-11T16:04:17;100727.53;;;26.89;67.94
34738;BME280;39910;47.154;27.614;2022-08-11T16:09:19;100726.78;;;26.74;68.46
34738;BME280;39910;47.154;27.614;2022-08-11T16:11:46;100723.22;;;26.73;69.85
34738;BME280;39910;47.154;27.614;2022-08-11T16:14:14;100725.97;;;26.68;69.58
34738;BME280;39910;47.154;27.614;2022-08-11T16:17:00;100725.69;;;26.75;70.26
34738;BME280;39910;47.154;27.614;2022-08-11T16:19:28;100727.09;;;26.57;70.93
34738;BME280;39910;47.154;27.614;2022-08-11T16:21:58;100730.13;;;26.45;73.21
34738;BME280;39910;47.154;27.614;2022-08-11T16:24:24;100725.22;;;26.47;73.98
34738;BME280;39910;47.154;27.614;2022-08-11T16:26:52;100735.81;;;26.43;74.02
34738;BME280;39910;47.154;27.614;2022-08-11T16:29:20;100739.63;;;26.37;74.99
34738;BME280;39910;47.154;27.614;2022-08-11T16:31:50;100744.25;;;26.27;74.94
34738;BME280;39910;47.154;27.614;2022-08-11T16:34:50;100746.44;;;26.20;75.91
34738;BME280;39910;47.154;27.614;2022-08-11T16:37:35;100745.88;;;26.28;76.24
34738;BME280;39910;47.154;27.614;2022-08-11T16:40:20;100741.81;;;26.30;76.35
34738;BME280;39910;47.154;27.614;2022-08-11T16:42:48;100746.16;;;26.26;77.04
34738;BME280;39910;47.154;27.614;2022-08-11T16:45:33;100753.50;;;26.05;77.21
34738;BME280;39910;47.154;27.614;2022-08-11T16:48:18;100746.16;;;26.11;77.38
34738;BME280;39910;47.154;27.614;2022-08-11T16:50:45;100751.63;;;25.96;76.09
34738;BME280;39910;47.154;27.614;2022-08-11T16:53:12;100754.06;;;25.97;76.59
34738;BME280;39910;47.154;27.614;2022-08-11T16:55:40;100748.34;;;25.94;76.71
34738;BME280;39910;47.154;27.614;2022-08-11T16:58:07;100748.06;;;25.75;77.73
34738;BME280;39910;47.154;27.614;2022-08-11T17:00:51;100750.72;;;25.70;76.49
34738;BME280;39910;47.154;27.614;2022-08-11T17:03:18;100762.41;;;25.60;77.84
34738;BME280;39910;47.154;27.614;2022-08-11T17:06:04;100762.41;;;25.50;77.68
34738;BME280;39910;47.154;27.614;2022-08-11T17:08:52;100766.97;;;25.39;77.32
34738;BME280;39910;47.154;27.614;2022-08-11T17:11:44;100766.91;;;25.24;77.31
34738;BME280;39910;47.154;27.614;2022-08-11T17:14:53;100767.75;;;25.19;78.88